createdAt,value
2018-04-08T00:01:55.661Z,80.60
2018-04-08T00:04:23.166Z,81.30
2018-04-08T00:06:51.422Z,81.40
2018-04-08T00:09:18.907Z,81.50
2018-04-08T00:11:47.176Z,82.10
2018-04-08T00:14:15.426Z,82.40
2018-04-08T00:16:42.914Z,82.40
2018-04-08T00:19:11.162Z,82.40
2018-04-08T00:21:38.655Z,82.30
2018-04-08T00:24:06.171Z,81.80
2018-04-08T00:26:33.662Z,81.60
2018-04-08T00:29:01.921Z,82.30
2018-04-08T00:31:29.412Z,82.20
2018-04-08T00:33:56.899Z,82.60
2018-04-08T00:36:24.390Z,82.80
2018-04-08T00:38:51.883Z,82.90
2018-04-08T00:41:19.364Z,82.90
2018-04-08T00:43:46.847Z,83.40
2018-04-08T00:46:14.339Z,83.40
2018-04-08T00:48:42.586Z,83.90
2018-04-08T00:51:10.067Z,83.80
2018-04-08T00:53:38.335Z,84.30
2018-04-08T00:56:06.590Z,84.80
2018-04-08T00:58:34.078Z,84.80
2018-04-08T01:01:02.363Z,84.70
2018-04-08T01:03:29.857Z,84.60
2018-04-08T01:05:57.338Z,84.30
2018-04-08T01:08:24.847Z,84.40
2018-04-08T01:10:52.339Z,84.70
2018-04-08T01:13:19.840Z,85.40
2018-04-08T01:15:48.120Z,85.40
2018-04-08T01:18:16.368Z,86.00
2018-04-08T01:20:43.851Z,86.00
2018-04-08T01:23:12.108Z,86.60
2018-04-08T01:25:39.594Z,86.60
2018-04-08T01:28:07.114Z,86.80
2018-04-08T01:30:38.231Z,86.90
2018-04-08T01:33:05.716Z,87.10
2018-04-08T01:35:33.223Z,88.20
2018-04-08T01:38:00.725Z,88.20
2018-04-08T01:40:28.226Z,88.60
2018-04-08T01:42:57.486Z,88.60
2018-04-08T01:45:24.971Z,88.70
2018-04-08T01:47:53.227Z,89.30
2018-04-08T01:50:20.724Z,89.10
2018-04-08T01:52:48.206Z,89.00
2018-04-08T01:55:15.699Z,89.00
2018-04-08T01:57:43.204Z,89.00
2018-04-08T02:00:10.691Z,90.10
2018-04-08T02:02:38.183Z,89.90
2018-04-08T02:05:06.458Z,90.60
2018-04-08T02:07:33.955Z,90.50
2018-04-08T02:10:01.443Z,90.70
2018-04-08T02:12:28.946Z,90.70
2018-04-08T02:14:57.228Z,90.80
2018-04-08T02:17:24.711Z,90.80
2018-04-08T02:19:52.219Z,90.80
2018-04-08T02:22:19.707Z,90.90
2018-04-08T02:24:47.187Z,91.10
2018-04-08T02:27:14.695Z,90.80
2018-04-08T02:29:42.951Z,90.90
2018-04-08T02:32:10.434Z,90.90
2018-04-08T02:34:38.711Z,91.00
2018-04-08T02:37:06.972Z,91.10
2018-04-08T02:39:34.459Z,91.10
2018-04-08T02:42:01.970Z,91.60
2018-04-08T02:44:29.458Z,91.30
2018-04-08T02:46:57.721Z,91.00
2018-04-08T02:49:25.240Z,90.90
2018-04-08T02:51:52.727Z,90.70
2018-04-08T02:54:20.219Z,90.80
2018-04-08T02:56:47.728Z,90.80
2018-04-08T02:59:15.218Z,90.90
2018-04-08T03:01:43.475Z,91.40
2018-04-08T03:04:10.988Z,91.40
2018-04-08T03:06:38.514Z,91.20
2018-04-08T03:09:06.776Z,91.50
2018-04-08T03:11:35.038Z,91.20
2018-04-08T03:14:02.532Z,91.20
2018-04-08T03:16:30.776Z,91.10
2018-04-08T03:18:58.274Z,91.10
2018-04-08T03:21:25.757Z,91.30
2018-04-08T03:23:53.248Z,91.50
2018-04-08T03:26:20.735Z,91.60
2018-04-08T03:28:48.983Z,91.50
2018-04-08T03:31:16.479Z,91.50
2018-04-08T03:33:43.974Z,91.50
2018-04-08T03:36:11.459Z,91.70
2018-04-08T03:38:38.997Z,92.10
2018-04-08T03:41:06.467Z,91.80
2018-04-08T03:43:33.948Z,91.90
2018-04-08T03:46:02.214Z,92.20
2018-04-08T03:48:30.464Z,92.30
2018-04-08T03:50:57.943Z,92.30
2018-04-08T03:53:25.440Z,92.30
2018-04-08T03:55:52.922Z,92.50
2018-04-08T03:58:20.416Z,92.50
2018-04-08T04:00:48.735Z,92.20
2018-04-08T04:03:16.227Z,92.20
2018-04-08T04:05:43.718Z,92.10
2018-04-08T04:08:11.974Z,92.20
2018-04-08T04:10:39.461Z,92.20
2018-04-08T04:13:06.947Z,92.30
2018-04-08T04:15:34.454Z,92.40
2018-04-08T04:18:01.952Z,92.40
2018-04-08T04:20:41.299Z,92.40
2018-04-08T04:26:27.011Z,92.20
2018-04-08T04:28:54.495Z,92.30
2018-04-08T04:31:21.977Z,92.10
2018-04-08T04:33:50.241Z,92.20
2018-04-08T04:36:18.499Z,92.20
2018-04-08T04:38:45.987Z,92.00
2018-04-08T04:41:14.247Z,91.80
2018-04-08T04:43:41.741Z,91.80
2018-04-08T04:46:09.227Z,91.70
2018-04-08T04:48:36.728Z,91.30
2018-04-08T04:51:04.979Z,91.10
2018-04-08T04:53:32.511Z,91.10
2018-04-08T04:56:00.001Z,91.10
2018-04-08T04:58:27.482Z,91.20
2018-04-08T05:00:55.748Z,91.20
2018-04-08T05:03:24.002Z,91.20
2018-04-08T05:05:51.500Z,91.20
2018-04-08T05:08:19.005Z,91.10
2018-04-08T05:10:47.293Z,90.90
2018-04-08T05:13:15.689Z,90.90
2018-04-08T05:15:43.960Z,90.60
2018-04-08T05:18:11.451Z,90.60
2018-04-08T05:20:38.935Z,90.30
2018-04-08T05:23:06.455Z,90.10
2018-04-08T05:25:33.946Z,89.80
2018-04-08T05:28:01.455Z,89.50
2018-04-08T05:30:29.719Z,89.80
2018-04-08T05:32:58.004Z,89.60
2018-04-08T05:35:26.278Z,88.70
2018-04-08T05:37:53.763Z,88.60
2018-04-08T05:40:21.242Z,90.10
2018-04-08T05:42:48.747Z,81.20
2018-04-08T05:45:16.231Z,76.50
2018-04-08T05:47:43.734Z,72.30
2018-04-08T05:50:11.231Z,66.50
2018-04-08T05:52:39.493Z,62.50
2018-04-08T05:55:07.009Z,62.50
2018-04-08T05:57:34.507Z,59.40
2018-04-08T06:00:01.999Z,57.70
2018-04-08T06:02:29.502Z,57.10
2018-04-08T06:04:56.991Z,57.90
2018-04-08T06:07:25.253Z,56.00
2018-04-08T06:09:52.759Z,55.90
2018-04-08T06:12:20.251Z,55.80
2018-04-08T06:14:47.751Z,56.50
2018-04-08T06:17:16.015Z,54.80
2018-04-08T06:19:44.281Z,54.20
2018-04-08T06:22:11.798Z,54.20
2018-04-08T06:24:39.300Z,53.70
2018-04-08T06:27:07.554Z,53.40
2018-04-08T06:29:35.056Z,53.20
2018-04-08T06:32:02.548Z,53.60
2018-04-08T06:34:30.046Z,53.20
2018-04-08T06:36:57.569Z,53.30
2018-04-08T06:39:25.066Z,53.60
2018-04-08T06:41:53.318Z,51.70
2018-04-08T06:44:20.830Z,51.60
2018-04-08T06:46:48.327Z,51.40
2018-04-08T06:49:15.826Z,51.00
2018-04-08T06:51:43.352Z,50.30
2018-04-08T06:54:10.880Z,50.90
2018-04-08T06:56:38.463Z,49.80
2018-04-08T06:59:06.754Z,48.00
2018-04-08T07:01:34.249Z,48.00
2018-04-08T07:04:01.758Z,48.40
2018-04-08T07:06:29.247Z,46.40
2018-04-08T07:08:57.527Z,47.90
2018-04-08T07:11:25.784Z,49.90
2018-04-08T07:13:53.283Z,49.80
2018-04-08T07:16:20.784Z,49.20
2018-04-08T07:18:48.271Z,48.20
2018-04-08T07:21:16.539Z,48.20
2018-04-08T07:23:44.819Z,47.60
2018-04-08T07:26:13.075Z,46.30
2018-04-08T07:28:40.575Z,46.30
2018-04-08T07:31:08.071Z,45.80
2018-04-08T07:33:35.564Z,46.00
2018-04-08T07:36:03.835Z,48.00
2018-04-08T07:38:31.327Z,48.00
2018-04-08T07:40:58.823Z,45.00
2018-04-08T07:43:26.328Z,46.50
2018-04-08T07:45:54.583Z,46.80
2018-04-08T07:48:22.085Z,46.90
2018-04-08T07:50:49.732Z,43.10
2018-04-08T07:53:17.228Z,43.50
2018-04-08T07:55:44.715Z,46.20
2018-04-08T07:58:12.223Z,44.30
2018-04-08T08:00:39.707Z,44.80
2018-04-08T08:03:07.199Z,42.00
2018-04-08T08:05:35.467Z,40.90
2018-04-08T08:08:02.956Z,40.80
2018-04-08T08:10:30.447Z,45.60
2018-04-08T08:12:57.955Z,44.80
2018-04-08T08:15:26.207Z,40.70
2018-04-08T08:17:53.694Z,40.60
2018-04-08T08:20:21.964Z,43.60
2018-04-08T08:22:50.223Z,44.10
2018-04-08T08:25:17.722Z,44.00
2018-04-08T08:27:45.230Z,46.70
2018-04-08T08:30:12.720Z,45.60
2018-04-08T08:32:40.971Z,45.40
2018-04-08T08:35:09.272Z,43.40
2018-04-08T08:37:37.531Z,45.20
2018-04-08T08:40:05.788Z,46.10
2018-04-08T08:42:33.364Z,46.00
2018-04-08T08:45:00.918Z,41.30
2018-04-08T08:47:28.414Z,44.80
2018-04-08T08:49:55.934Z,53.20
2018-04-08T08:52:26.143Z,55.50
2018-04-08T08:54:53.686Z,55.40
2018-04-08T08:57:21.970Z,60.60
2018-04-08T08:59:51.227Z,60.70
2018-04-08T09:02:18.982Z,60.10
2018-04-08T09:04:46.507Z,58.70
2018-04-08T09:07:14.773Z,63.90
2018-04-08T09:09:43.035Z,62.40
2018-04-08T09:12:11.325Z,64.60
2018-04-08T09:14:38.813Z,64.60
2018-04-08T09:17:06.312Z,63.70
2018-04-08T09:19:45.515Z,67.70
2018-04-08T09:22:31.753Z,64.40
2018-04-08T09:25:00.064Z,66.30
2018-04-08T09:27:27.558Z,64.20
2018-04-08T09:29:55.053Z,66.10
2018-04-08T09:32:23.338Z,66.10
2018-04-08T09:34:51.603Z,65.50
2018-04-08T09:37:19.874Z,65.10
2018-04-08T09:39:47.377Z,65.10
2018-04-08T09:42:14.879Z,64.30
2018-04-08T09:44:42.407Z,64.80
2018-04-08T09:47:09.935Z,65.60
2018-04-08T09:49:37.440Z,69.40
2018-04-08T09:52:04.939Z,66.70
2018-04-08T09:54:33.207Z,63.20
2018-04-08T09:57:01.462Z,68.00
2018-04-08T09:59:28.970Z,67.80
2018-04-08T10:02:12.046Z,68.20
2018-04-08T10:04:39.563Z,64.40
2018-04-08T10:07:07.049Z,64.70
2018-04-08T10:09:34.539Z,64.80
2018-04-08T10:12:02.836Z,64.50
2018-04-08T10:14:30.334Z,64.30
2018-04-08T10:16:57.822Z,61.80
2018-04-08T10:19:26.120Z,63.10
2018-04-08T10:21:53.615Z,62.30
2018-04-08T10:24:21.107Z,64.30
2018-04-08T10:26:48.611Z,64.70
2018-04-08T10:29:16.155Z,62.90
2018-04-08T10:31:43.611Z,62.50
2018-04-08T10:34:11.114Z,63.00
2018-04-08T10:36:38.616Z,65.50
2018-04-08T10:39:06.115Z,65.00
2018-04-08T10:41:33.636Z,63.30
2018-04-08T10:44:01.180Z,62.80
2018-04-08T10:46:29.451Z,63.00
2018-04-08T10:48:57.721Z,61.90
2018-04-08T10:51:25.242Z,61.80
2018-04-08T10:53:52.755Z,64.30
2018-04-08T10:56:20.264Z,62.50
2018-04-08T10:58:47.756Z,62.60
2018-04-08T11:01:16.035Z,65.20
2018-04-08T11:03:44.305Z,63.40
2018-04-08T11:06:12.671Z,63.20
2018-04-08T11:08:40.182Z,63.10
2018-04-08T11:11:07.714Z,63.70
2018-04-08T11:13:35.974Z,62.30
2018-04-08T11:16:03.483Z,62.30
2018-04-08T11:18:31.015Z,63.70
2018-04-08T11:20:58.527Z,62.50
2018-04-08T11:23:26.055Z,65.40
2018-04-08T11:25:53.608Z,62.30
2018-04-08T11:28:21.119Z,65.30
2018-04-08T11:30:48.619Z,62.40
2018-04-08T11:33:16.108Z,63.80
2018-04-08T11:35:43.623Z,61.30
2018-04-08T11:38:11.196Z,62.70
2018-04-08T11:40:38.687Z,64.20
2018-04-08T11:43:06.187Z,62.40
2018-04-08T11:45:34.447Z,61.60
2018-04-08T11:48:01.934Z,61.60
2018-04-08T11:50:29.438Z,62.80
2018-04-08T11:52:56.926Z,61.70
2018-04-08T11:55:25.183Z,62.30
2018-04-08T11:57:52.686Z,62.30
2018-04-08T12:00:20.188Z,64.90
2018-04-08T12:02:47.699Z,61.80
2018-04-08T12:05:15.196Z,61.60
2018-04-08T12:07:42.683Z,63.40
2018-04-08T12:10:10.954Z,59.90
2018-04-08T12:12:38.444Z,59.90
2018-04-08T12:15:05.939Z,59.00
2018-04-08T12:17:33.441Z,59.50
2018-04-08T12:20:01.703Z,60.60
2018-04-08T12:22:29.192Z,60.50
2018-04-08T12:24:56.695Z,63.90
2018-04-08T12:27:24.185Z,60.10
2018-04-08T12:29:52.439Z,59.20
2018-04-08T12:32:19.944Z,59.20
2018-04-08T12:34:47.510Z,58.80
2018-04-08T12:37:15.002Z,59.60
2018-04-08T12:39:42.515Z,59.60
2018-04-08T12:42:10.002Z,58.90
2018-04-08T12:44:37.495Z,60.50
2018-04-08T12:47:05.000Z,58.80
2018-04-08T12:49:32.490Z,59.20
2018-04-08T12:51:59.996Z,59.70
2018-04-08T12:54:27.498Z,58.30
2018-04-08T12:56:54.981Z,58.00
2018-04-08T12:59:22.481Z,59.00
2018-04-08T13:01:49.976Z,60.20
2018-04-08T13:04:17.475Z,57.80
2018-04-08T13:06:45.735Z,59.10
2018-04-08T13:09:14.003Z,57.30
2018-04-08T13:11:41.498Z,57.30
2018-04-08T13:14:09.041Z,56.50
2018-04-08T13:16:36.502Z,59.30
2018-04-08T13:19:04.007Z,58.80
2018-04-08T13:21:31.501Z,59.90
2018-04-08T13:23:59.758Z,58.40
2018-04-08T13:26:27.263Z,58.40
2018-04-08T13:28:54.759Z,58.80
2018-04-08T13:31:22.248Z,59.30
2018-04-08T13:33:50.499Z,58.90
2018-04-08T13:36:18.000Z,58.90
2018-04-08T13:38:45.495Z,58.90
2018-04-08T13:41:12.982Z,59.40
2018-04-08T13:43:40.492Z,59.30
2018-04-08T13:46:07.979Z,58.60
2018-04-08T13:48:35.471Z,59.70
2018-04-08T13:51:03.740Z,58.70
2018-04-08T13:53:31.232Z,58.70
2018-04-08T13:55:58.731Z,59.60
2018-04-08T13:58:26.234Z,58.30
2018-04-08T14:00:53.728Z,58.00
2018-04-08T14:03:21.219Z,58.50
2018-04-08T14:05:48.724Z,58.10
2018-04-08T14:08:16.225Z,58.80
2018-04-08T14:10:43.715Z,57.20
2018-04-08T14:13:11.992Z,56.50
2018-04-08T14:15:40.247Z,58.40
2018-04-08T14:18:07.802Z,58.40
2018-04-08T14:20:35.273Z,58.30
2018-04-08T14:23:03.535Z,56.80
2018-04-08T14:25:31.044Z,56.80
2018-04-08T14:27:58.526Z,56.40
2018-04-08T14:30:26.019Z,56.90
2018-04-08T14:32:54.287Z,56.20
2018-04-08T14:35:21.772Z,56.20
2018-04-08T14:37:49.274Z,55.40
2018-04-08T14:40:16.789Z,55.90
2018-04-08T14:42:44.278Z,57.10
2018-04-08T14:45:11.765Z,56.00
2018-04-08T14:47:39.271Z,54.60
2018-04-08T14:50:06.759Z,54.50
2018-04-08T14:52:34.244Z,55.80
2018-04-08T14:55:01.748Z,54.90
2018-04-08T14:57:29.254Z,53.90
2018-04-08T14:59:56.741Z,55.80
2018-04-08T15:02:24.995Z,53.40
2018-04-08T15:04:52.499Z,53.40
2018-04-08T15:07:19.992Z,53.90
2018-04-08T15:09:47.476Z,54.60
2018-04-08T15:12:15.747Z,54.60
2018-04-08T15:14:43.227Z,54.60
2018-04-08T15:17:10.729Z,55.40
2018-04-08T15:19:38.212Z,54.40
2018-04-08T15:22:05.711Z,54.70
2018-04-08T15:24:33.206Z,54.10
2018-04-08T15:27:00.700Z,54.30
2018-04-08T15:29:28.956Z,54.10
2018-04-08T15:31:56.455Z,54.10
2018-04-08T15:34:23.935Z,54.50
2018-04-08T15:36:51.424Z,53.40
2018-04-08T15:39:18.923Z,53.50
2018-04-08T15:41:46.403Z,54.70
2018-04-08T15:44:13.888Z,54.20
2018-04-08T15:46:41.391Z,55.00
2018-04-08T15:49:08.890Z,54.20
2018-04-08T15:51:36.391Z,54.00
2018-04-08T15:54:04.648Z,56.70
2018-04-08T15:56:32.145Z,56.70
2018-04-08T15:58:59.631Z,54.60
2018-04-08T16:01:27.117Z,55.30
2018-04-08T16:03:54.631Z,55.00
2018-04-08T16:06:22.120Z,55.70
2018-04-08T16:08:49.614Z,55.30
2018-04-08T16:11:17.876Z,56.00
2018-04-08T16:13:45.362Z,55.90
2018-04-08T16:16:12.856Z,56.00
2018-04-08T16:18:40.355Z,58.10
2018-04-08T16:21:08.618Z,58.20
2018-04-08T16:23:38.101Z,58.20
2018-04-08T16:26:05.616Z,57.50
2018-04-08T16:28:33.108Z,57.70
2018-04-08T16:31:00.600Z,58.10
2018-04-08T16:33:28.205Z,59.20
2018-04-08T16:35:55.698Z,60.20
2018-04-08T16:38:23.284Z,60.00
2018-04-08T16:40:51.551Z,58.90
2018-04-08T16:43:19.037Z,58.90
2018-04-08T16:45:46.544Z,59.80
2018-04-08T16:48:14.031Z,59.00
2018-04-08T16:50:42.289Z,59.50
2018-04-08T16:53:09.796Z,59.50
2018-04-08T16:55:37.291Z,59.30
2018-04-08T16:58:05.549Z,60.10
2018-04-08T17:00:33.062Z,60.10
2018-04-08T17:03:01.319Z,61.60
2018-04-08T17:05:28.811Z,61.60
2018-04-08T17:07:57.983Z,63.70
2018-04-08T17:10:26.249Z,63.90
2018-04-08T17:12:53.764Z,63.80
2018-04-08T17:15:21.274Z,63.30
2018-04-08T17:17:49.536Z,64.20
2018-04-08T17:20:17.037Z,63.60
2018-04-08T17:22:44.550Z,64.70
2018-04-08T17:25:12.039Z,64.40
2018-04-08T17:27:40.296Z,64.80
2018-04-08T17:30:07.795Z,64.80
2018-04-08T17:32:35.292Z,65.40
2018-04-08T17:35:02.791Z,66.00
2018-04-08T17:37:30.306Z,66.30
2018-04-08T17:39:59.307Z,67.90
2018-04-08T17:42:26.800Z,67.90
2018-04-08T17:44:54.295Z,68.70
2018-04-08T17:47:21.774Z,69.10
2018-04-08T17:49:49.271Z,69.90
2018-04-08T17:52:17.660Z,70.40
2018-04-08T17:54:45.156Z,70.80
2018-04-08T17:57:12.666Z,71.30
2018-04-08T17:59:40.155Z,71.50
2018-04-08T18:02:07.663Z,71.60
2018-04-08T18:04:35.923Z,71.70
2018-04-08T18:07:03.411Z,71.70
2018-04-08T18:09:30.911Z,72.60
2018-04-08T18:11:58.404Z,71.60
2018-04-08T18:14:25.907Z,71.90
2018-04-08T18:16:53.390Z,72.80
2018-04-08T18:19:20.918Z,72.30
2018-04-08T18:21:48.477Z,72.80
2018-04-08T18:24:15.964Z,73.20
2018-04-08T18:26:43.457Z,74.80
2018-04-08T18:29:11.743Z,75.70
2018-04-08T18:31:39.995Z,76.50
2018-04-08T18:34:07.484Z,76.40
2018-04-08T18:36:34.984Z,76.80
2018-04-08T18:39:02.517Z,77.00
2018-04-08T18:41:30.734Z,77.90
2018-04-08T18:43:58.231Z,77.80
2018-04-08T18:46:25.724Z,78.80
2018-04-08T18:48:53.970Z,79.80
2018-04-08T18:51:22.394Z,79.70
2018-04-08T18:53:49.904Z,81.00
2018-04-08T18:56:17.438Z,80.80
2018-04-08T18:58:45.725Z,81.50
2018-04-08T19:01:14.004Z,82.10
2018-04-08T19:03:41.536Z,82.10
2018-04-08T19:06:09.029Z,82.70
2018-04-08T19:08:36.545Z,83.10
2018-04-08T19:11:06.026Z,83.40
2018-04-08T19:13:33.510Z,84.10
2018-04-08T19:16:01.013Z,84.50
2018-04-08T19:18:28.507Z,84.90
2018-04-08T19:20:58.024Z,85.40
2018-04-08T19:23:25.536Z,86.20
2018-04-08T19:25:53.030Z,86.50
2018-04-08T19:28:20.536Z,86.80
2018-04-08T19:30:48.031Z,87.10
2018-04-08T19:33:16.519Z,87.10
2018-04-08T19:35:44.020Z,87.50
2018-04-08T19:38:12.282Z,88.40
2018-04-08T19:40:40.553Z,89.10
2018-04-08T19:43:08.063Z,89.00
2018-04-08T19:45:37.478Z,89.60
2018-04-08T19:48:04.955Z,90.00
2018-04-08T19:50:32.459Z,90.50
2018-04-08T19:52:59.956Z,90.20
2018-04-08T19:55:27.443Z,90.20
2018-04-08T19:57:54.942Z,90.40
2018-04-08T20:00:22.429Z,90.70
2018-04-08T20:02:49.927Z,90.90
2018-04-08T20:05:18.211Z,91.00
2018-04-08T20:07:46.463Z,91.20
2018-04-08T20:10:13.954Z,91.20
2018-04-08T20:12:41.500Z,91.00
2018-04-08T20:21:57.291Z,91.80
2018-04-08T20:24:24.782Z,91.80
2018-04-08T20:26:53.027Z,91.70
2018-04-08T20:29:20.530Z,91.70
2018-04-08T20:31:48.023Z,91.80
2018-04-08T20:34:15.516Z,92.00
2018-04-08T20:36:43.050Z,92.20
2018-04-08T20:39:12.231Z,92.60
2018-04-08T20:41:39.723Z,92.60
2018-04-08T20:44:07.224Z,92.80
2018-04-08T20:46:34.712Z,92.80
2018-04-08T20:49:02.230Z,92.70
2018-04-08T20:51:30.507Z,92.40
2018-04-08T20:53:58.008Z,92.40
2018-04-08T20:56:25.504Z,92.20
2018-04-08T20:58:53.780Z,91.50
2018-04-08T21:01:22.042Z,91.50
2018-04-08T21:03:50.308Z,91.90
2018-04-08T21:06:17.809Z,91.90
2018-04-08T21:08:45.302Z,92.00
2018-04-08T21:11:12.810Z,92.10
2018-04-08T21:13:41.075Z,92.50
2018-04-08T21:16:08.558Z,92.40
2018-04-08T21:18:36.060Z,93.10
2018-04-08T21:21:03.546Z,93.10
2018-04-08T21:23:31.060Z,93.20
2018-04-08T21:25:58.557Z,93.30
2018-04-08T21:28:26.055Z,93.30
2018-04-08T21:30:53.573Z,93.40
2018-04-08T21:33:21.071Z,93.50
2018-04-08T21:35:48.554Z,93.60
2018-04-08T21:38:16.056Z,94.00
2018-04-08T21:40:43.556Z,93.90
2018-04-08T21:43:11.057Z,94.10
2018-04-08T21:45:38.568Z,94.00
2018-04-08T21:48:06.051Z,93.70
2018-04-08T21:50:33.551Z,93.60
2018-04-08T21:53:01.821Z,93.90
2018-04-08T21:55:29.318Z,93.80
2018-04-08T21:57:56.820Z,93.90
2018-04-08T22:00:24.333Z,93.80
2018-04-08T22:02:51.827Z,93.80
2018-04-08T22:05:19.323Z,94.10
2018-04-08T22:07:47.580Z,94.30
2018-04-08T22:10:15.099Z,94.30
2018-04-08T22:12:42.602Z,94.50
2018-04-08T22:15:10.860Z,94.30
2018-04-08T22:17:38.346Z,94.30
2018-04-08T22:20:06.615Z,94.00
2018-04-08T22:22:34.867Z,94.40
2018-04-08T22:25:02.350Z,94.40
2018-04-08T22:27:30.640Z,94.90
2018-04-08T22:29:58.127Z,94.80
2018-04-08T22:32:25.615Z,94.60
2018-04-08T22:34:53.112Z,94.50
2018-04-08T22:37:20.645Z,94.70
2018-04-08T22:39:48.143Z,94.70
2018-04-08T22:42:15.648Z,94.60
2018-04-08T22:44:43.130Z,94.60
2018-04-08T22:47:11.386Z,95.00
2018-04-08T22:49:38.887Z,94.90
2018-04-08T22:52:06.375Z,95.00
2018-04-08T22:54:33.859Z,95.10
2018-04-08T22:57:01.359Z,95.40
2018-04-08T22:59:28.839Z,95.40
2018-04-08T23:01:56.330Z,95.30
2018-04-08T23:04:23.819Z,95.20
2018-04-08T23:06:51.300Z,95.60
2018-04-08T23:09:18.804Z,95.20
2018-04-08T23:11:46.320Z,95.10
2018-04-08T23:14:13.799Z,95.20
2018-04-08T23:16:42.067Z,95.40
2018-04-08T23:19:10.323Z,95.40
2018-04-08T23:21:37.811Z,95.40
2018-04-08T23:24:06.093Z,95.60
2018-04-08T23:26:33.588Z,95.70
2018-04-08T23:29:01.844Z,95.30
2018-04-08T23:31:29.343Z,95.30
2018-04-08T23:33:56.830Z,95.30
2018-04-08T23:36:24.310Z,95.40
2018-04-08T23:38:51.808Z,95.20
2018-04-08T23:41:19.300Z,95.30
2018-04-08T23:43:46.799Z,95.60
2018-04-08T23:46:15.067Z,95.80
2018-04-08T23:48:43.321Z,95.80
2018-04-08T23:51:10.807Z,95.80
2018-04-08T23:53:39.071Z,95.60
2018-04-08T23:56:06.554Z,95.50
2018-04-08T23:58:34.807Z,95.90
